This is the latest recevied weather packets stored in our database for station/object SQ5BUJ-13. If no packets are shown the sender has not sent any weather packets the latest 10 day(s).
| Time | Temp. | Humidity | Pressure | Rain* | Wind** | Luminosity | Snow |
|---|---|---|---|---|---|---|---|
| 1778166541 | 15° C | 67% | 1012.2 hPa | - | - | - | - |
| 1778164926 | 15° C | 67% | 1012.2 hPa | - | - | - | - |
| 1778163286 | 15° C | 67% | 1012.2 hPa | - | - | - | - |
| 1778161606 | 15° C | 72% | 1012.1 hPa | - | - | - | - |
| 1778158436 | 15.56° C | 68% | 1011.9 hPa | - | - | - | - |
| 1778156767 | 15.56° C | 68% | 1011.9 hPa | - | - | - | - |
| 1778155286 | 13.33° C | 82% | 1011.7 hPa | - | - | - | - |
| 1778153746 | 13.33° C | 82% | 1011.7 hPa | - | - | - | - |
| 1778152221 | 13.89° C | 79% | 1011.1 hPa | - | - | - | - |
| 1778150595 | 13.89° C | 79% | 1011.1 hPa | - | - | - | - |
| 1778148921 | 13.89° C | 79% | 1011.1 hPa | - | - | - | - |
| 1778147173 | 15.56° C | 75% | 1010.1 hPa | - | - | - | - |
| 1778144028 | 16.11° C | 74% | 1009.5 hPa | - | - | - | - |
| 1778142540 | 16.11° C | 74% | 1009.5 hPa | - | - | - | - |
| 1778141021 | 16.11° C | 76% | 1008.6 hPa | - | - | - | - |
| 1778139441 | 16.11° C | 76% | 1008.6 hPa | - | - | - | - |
| 1778137796 | 15.56° C | 79% | 1008.3 hPa | - | - | - | - |
| 1778136261 | 15.56° C | 79% | 1008.3 hPa | - | - | - | - |
| 1778133240 | 15.56° C | 80% | 1007.8 hPa | - | - | - | - |
| 1778131606 | 15.56° C | 80% | 1007.8 hPa | - | - | - | - |
| 1778129876 | 13.89° C | 89% | 1007.3 hPa | - | - | - | - |
| 1778128371 | 13.89° C | 89% | 1007.3 hPa | - | - | - | - |
| 1778126709 | 14.44° C | 84% | 1006.7 hPa | - | - | - | - |
| 1778125096 | 14.44° C | 84% | 1006.7 hPa | - | - | - | - |
| 1778123467 | 14.44° C | 85% | 1006.6 hPa | - | - | - | - |
* Rain since midnight (hover to see other rain measurements)
** Current wind speed in m/s (hover to see current wind gust speed)